• Join FlightAware (Why Join?)
  • Login
  • US Flag 
09:17AM EDT


 

Airport Tracker/Info


-or-


 

Live Flight TrackerFlight Track Log ✈ SWA1533 ✈ 10-Apr-2013 ✈ KBWI - KPHX

Flight Track Log - Related Links

Times and Time Zones

All times are in EDT time to prevent confusion due to time zone crossing. See the SWA1533 flight status page for this flight to view local times or setup timezone preferences in your user account.

Time Position Orientation Groundspeed Altitude Reporting Facility
EDT Latitude Longitude Course Direction KTS MPH feet Rate Location/Type
09:50PM 39.1833 -76.7167 270° West 168 193 1,800  Level Potomac TRACON
09:51PM 39.1833 -76.7833 270° West 200 230 3,400 1,740 Climbing Potomac TRACON
09:52PM 39.2000 -76.8667 284° West 234 269 5,300 2,220 Climbing Potomac TRACON
09:53PM 39.2167 -76.9667 282° West 252 290 7,900 2,940 Climbing Potomac TRACON
09:54PM 39.2167 -77.0500 270° West 259 298 11,200 3,060 Climbing Potomac TRACON
09:55PM 39.1667 -77.1167 226° Southwest 279 321 14,100 2,100 Climbing Potomac TRACON
09:56PM 39.0833 -77.1833 212° Southwest 333 383 15,500 1,860 Climbing Potomac TRACON
09:57PM 38.9469 -77.3211 218° Southwest 384 442 19,100 2,040 Climbing Washington Center
09:58PM 38.8769 -77.3861 216° Southwest 390 449 21,100 2,100 Climbing Washington Center
09:59PM 38.7692 -77.4822 215° Southwest 390 449 23,400 1,920 Climbing Washington Center
10:00PM 38.6783 -77.5703 217° Southwest 401 461 25,000 1,440 Climbing Washington Center
10:01PM 38.5914 -77.6503 216° Southwest 415 478 26,300 1,260 Climbing Washington Center
10:02PM 38.4981 -77.7458 219° Southwest 428 493 27,600 1,320 Climbing Washington Center
10:03PM 38.4289 -77.8711 235° Southwest 433 498 29,000 1,440 Climbing Washington Center
10:04PM 38.3597 -78.0039 236° Southwest 446 513 30,500 1,500 Climbing Washington Center
10:05PM 38.2964 -78.1422 240° Southwest 452 520 32,000 720 Climbing Washington Center
10:06PM 38.2328 -78.2800 240° Southwest 452 520 32,000 480 Level Washington Center
10:07PM 38.1714 -78.4153 240° Southwest 457 526 33,000 660 Climbing Washington Center
10:08PM 38.1117 -78.5528 241° Southwest 457 526 33,400 840 Climbing Washington Center
10:09PM 38.0500 -78.6850 239° Southwest 452 520 34,700 1,200 Climbing Washington Center
10:10PM 37.9858 -78.8219 239° Southwest 452 520 35,900 600 Climbing Washington Center
10:11PM 37.9172 -78.9689 239° Southwest 452 520 36,000  Climbing Washington Center
10:12PM 37.8508 -79.1028 238° Southwest 452 520 36,000  Level Washington Center
10:13PM 37.7906 -79.2339 240° Southwest 447 514 36,000  Level Washington Center
10:14PM 37.7281 -79.3622 238° Southwest 447 514 36,000  Level Washington Center
10:15PM 37.6614 -79.4953 238° Southwest 441 507 36,000  Level Washington Center
10:16PM 37.5986 -79.6233 238° Southwest 441 507 36,000  Level Washington Center
10:17PM 37.5358 -79.7561 239° Southwest 441 507 36,000  Level Washington Center
10:18PM 37.4728 -79.8886 239° Southwest 441 507 36,000  Level Washington Center
10:19PM 37.4142 -80.0031 237° Southwest 441 507 36,000  Level Washington Center
10:20PM 37.3508 -80.1328 238° Southwest 435 501 36,000  Level Washington Center
10:21PM 37.2925 -80.2486 238° Southwest 440 506 36,000  Level Atlanta Center
10:22PM 37.2414 -80.3475 237° Southwest 417 480 36,000  Level Atlanta Center
10:23PM 37.1764 -80.4781 238° Southwest 422 486 36,000  Level Atlanta Center
10:24PM 37.1133 -80.6033 238° Southwest 427 491 36,000  Level Atlanta Center
10:25PM 37.0442 -80.7442 238° Southwest 432 497 36,000  Level Atlanta Center
10:26PM 36.9767 -80.8742 237° Southwest 439 505 36,000  Level Atlanta Center
10:27PM 36.9133 -81.0014 238° Southwest 439 505 36,000  Level Atlanta Center
10:28PM 36.8517 -81.1283 239° Southwest 439 505 36,000  Level Atlanta Center
10:29PM 36.7939 -81.2392 237° Southwest 439 505 36,000  Level Atlanta Center
10:30PM 36.7319 -81.3658 239° Southwest 439 505 36,000  Level Atlanta Center
10:31PM 36.6700 -81.4894 238° Southwest 434 499 36,000  Level Atlanta Center
10:32PM 36.6017 -81.6158 236° Southwest 434 499 36,000  Level Atlanta Center
10:33PM 36.5394 -81.7392 238° Southwest 434 499 36,000  Level Atlanta Center
10:34PM 36.4769 -81.8647 238° Southwest 434 499 36,000  Level Atlanta Center
10:35PM 36.4122 -81.9828 236° Southwest 434 499 36,000  Level Atlanta Center
10:36PM 36.3475 -82.1056 237° Southwest 429 494 36,000  Level Atlanta Center
10:37PM 36.2847 -82.2281 238° Southwest 424 488 36,000  Level Atlanta Center
10:38PM 36.2219 -82.3478 237° Southwest 419 482 36,000  Level Atlanta Center
10:39PM 36.1567 -82.4700 237° Southwest 419 482 36,000  Level Atlanta Center
10:40PM 36.0936 -82.5894 237° Southwest 419 482 36,000  Level Atlanta Center
10:41PM 36.0242 -82.7217 237° Southwest 419 482 36,000  Level Atlanta Center
10:42PM 35.9606 -82.8433 237° Southwest 419 482 36,000  Level Atlanta Center
10:43PM 35.8969 -82.9594 236° Southwest 419 482 36,000  Level Atlanta Center
10:44PM 35.8333 -83.0783 237° Southwest 424 488 36,000  Level Atlanta Center
10:45PM 35.7697 -83.1967 236° Southwest 424 488 36,000  Level Atlanta Center
10:46PM 35.7139 -83.3047 238° Southwest 419 482 36,000  Level Atlanta Center
10:47PM 35.6500 -83.4253 237° Southwest 419 482 36,000  Level Atlanta Center
10:48PM 35.5839 -83.5458 236° Southwest 424 488 36,000  Level Atlanta Center
10:49PM 35.5175 -83.6636 235° Southwest 424 488 36,000  Level Atlanta Center
10:50PM 35.4508 -83.7889 237° Southwest 424 488 36,000 -240 Level Atlanta Center
10:51PM 35.3822 -83.9114 236° Southwest 435 501 35,600 -540 Descending Atlanta Center
10:52PM 35.3136 -84.0361 236° Southwest 441 507 35,000 -840 Descending Atlanta Center
10:53PM 35.2467 -84.1583 236° Southwest 441 507 34,000 -960 Descending Atlanta Center
10:54PM 35.1778 -84.2853 236° Southwest 441 507 33,100 -960 Descending Atlanta Center
10:55PM 35.1106 -84.4044 235° Southwest 441 507 32,100 -600 Descending Atlanta Center
10:56PM 35.0456 -84.5233 236° Southwest 441 507 32,000 -60 Descending Atlanta Center
10:57PM 34.9761 -84.6447 235° Southwest 441 507 32,000  Level Atlanta Center
10:58PM 34.9086 -84.7658 236° Southwest 441 507 32,000  Level Atlanta Center
10:59PM 34.8347 -84.8967 235° Southwest 441 507 32,000  Level Atlanta Center
11:00PM 34.7672 -85.0172 236° Southwest 441 507 32,000  Level Atlanta Center
11:01PM 34.6972 -85.1403 235° Southwest 441 507 32,000  Level Atlanta Center
11:02PM 34.6272 -85.2606 235° Southwest 441 507 32,000  Level Atlanta Center
11:03PM 34.5569 -85.3831 235° Southwest 446 513 32,000  Level Atlanta Center
11:04PM 34.4867 -85.5081 236° Southwest 446 513 32,000  Level Atlanta Center
11:05PM 34.4142 -85.6328 235° Southwest 446 513 32,000  Level Atlanta Center
11:06PM 34.3458 -85.7547 236° Southwest 446 513 32,000  Level Atlanta Center
11:07PM 34.2817 -85.8614 234° Southwest 446 513 32,000  Level Atlanta Center
11:08PM 34.2089 -85.9856 235° Southwest 446 513 32,000  Level Atlanta Center
11:09PM 34.1358 -86.1092 234° Southwest 451 519 32,000  Level Atlanta Center
11:10PM 34.0628 -86.2328 235° Southwest 456 525 32,000  Level Atlanta Center
11:11PM 33.9917 -86.3564 235° Southwest 456 525 32,000  Level Atlanta Center
11:12PM 33.9203 -86.4769 235° Southwest 456 525 32,000  Level Atlanta Center
11:13PM 33.8469 -86.6000 234° Southwest 456 525 32,000  Level Atlanta Center
11:14PM 33.7733 -86.7203 234° Southwest 456 525 32,000  Level Atlanta Center
11:15PM 33.7019 -86.8428 235° Southwest 456 525 32,000  Level Atlanta Center
11:16PM 33.6281 -86.9603 233° Southwest 456 525 32,000  Level Atlanta Center
11:17PM 33.5503 -87.0772 231° Southwest 450 518 32,000  Level Atlanta Center
11:18PM 33.4719 -87.1942 231° Southwest 450 518 32,000  Level Atlanta Center
11:21PM 33.2089 -87.5889 232° Southwest 458 527 32,000  Level Memphis Center
11:22PM 33.1300 -87.7078 232° Southwest 458 527 32,000  Level Memphis Center
11:23PM 33.0489 -87.8219 230° Southwest 458 527 32,000  Level Memphis Center
11:24PM 32.9883 -87.9250 235° Southwest 452 520 32,000  Level Memphis Center
11:25PM 32.9092 -88.0386 230° Southwest 447 514 32,000  Level Memphis Center
11:26PM 32.8297 -88.1519 230° Southwest 447 514 32,000  Level Memphis Center
11:27PM 32.7544 -88.2650 232° Southwest 452 520 32,000  Level Memphis Center
11:28PM 32.6750 -88.3781 230° Southwest 452 520 32,000  Level Memphis Center
11:29PM 32.5972 -88.4906 231° Southwest 452 520 32,000  Level Memphis Center
11:30PM 32.5236 -88.5981 231° Southwest 452 520 32,000  Level Memphis Center
11:31PM 32.4481 -88.7103 231° Southwest 447 514 32,000  Level Memphis Center
11:32PM 32.3764 -88.8272 234° Southwest 447 514 32,000  Level Memphis Center
11:33PM 32.3656 -88.9628 265° West 422 486 32,000  Level Memphis Center
11:34PM 32.3525 -89.1008 264° West 417 480 32,000  Level Memphis Center
11:35PM 32.3369 -89.2361 262° West 417 480 32,000 840 Level Memphis Center
11:36PM 32.2900 -89.3597 246° West 417 480 33,700 1,500 Climbing Memphis Center
11:37PM 32.2450 -89.4828 247° West 412 474 35,100 1,140 Climbing Memphis Center
11:38PM 32.2019 -89.5914 245° Southwest 393 452 36,000 420 Climbing Memphis Center
11:39PM 32.1586 -89.6997 245° Southwest 376 433 36,000  Level Memphis Center
11:40PM 32.1175 -89.8103 246° West 371 427 36,000  Level Memphis Center
11:41PM 32.0719 -89.9186 244° Southwest 371 427 36,000  Level Memphis Center
11:42PM 32.0117 -90.0217 235° Southwest 376 433 36,000 840 Level Memphis Center
11:43PM 31.9453 -90.1322 235° Southwest 384 442 37,700 720 Climbing Memphis Center
11:45PM 31.8597 -90.2814 236° Southwest 334 384 38,000 60 Climbing Houston Center
11:46PM 31.8056 -90.3736 235° Southwest 340 391 38,000  Level Houston Center
11:47PM 31.7528 -90.4661 236° Southwest 342 394 38,000  Level Houston Center
11:48PM 31.7000 -90.5597 236° Southwest 342 394 38,000  Level Houston Center
11:49PM 31.6481 -90.6511 236° Southwest 338 389 38,000  Level Houston Center
11:50PM 31.5958 -90.7428 236° Southwest 339 390 38,000  Level Houston Center
11:51PM 31.5431 -90.8344 236° Southwest 340 391 38,000  Level Houston Center
11:52PM 31.4922 -90.9250 237° Southwest 336 387 38,000  Level Houston Center
11:53PM 31.4372 -91.0183 235° Southwest 344 396 38,000  Level Houston Center
11:54PM 31.3733 -91.1286 236° Southwest 343 395 38,000  Level Houston Center
11:55PM 31.3244 -91.2136 236° Southwest 341 392 38,000  Level Houston Center
11:56PM 31.2672 -91.3144 236° Southwest 350 403 38,000  Level Houston Center
11:57PM 31.2047 -91.4008 230° Southwest 349 402 38,000  Level Houston Center
11:58PM 31.1394 -91.4750 224° Southwest 350 403 38,000  Level Houston Center
11:59PM 31.0706 -91.5567 225° Southwest 351 404 38,000  Level Houston Center
12:00AM 31.0031 -91.6358 225° Southwest 346 398 38,000  Level Houston Center
12:01AM 30.9347 -91.7153 225° Southwest 345 397 38,000  Level Houston Center
12:02AM 30.8669 -91.7944 225° Southwest 344 396 38,000  Level Houston Center
12:03AM 30.8006 -91.8725 225° Southwest 340 391 38,000  Level Houston Center
12:04AM 30.7211 -91.9672 226° Southwest 339 390 38,000  Level Houston Center
12:05AM 30.6547 -92.0475 226° Southwest 342 394 38,000  Level Houston Center
12:06AM 30.5872 -92.1256 225° Southwest 341 392 38,000  Level Houston Center
12:07AM 30.5197 -92.2064 226° Southwest 344 396 38,000  Level Houston Center
12:08AM 30.4531 -92.2858 226° Southwest 343 395 38,000  Level Houston Center
12:09AM 30.3867 -92.3658 226° Southwest 340 391 38,000  Level Houston Center
12:10AM 30.3217 -92.4436 226° Southwest 337 388 38,000  Level Houston Center
12:11AM 30.2564 -92.5225 226° Southwest 337 388 38,000  Level Houston Center
12:12AM 30.1933 -92.5992 226° Southwest 331 381 38,000  Level Houston Center
12:13AM 30.1222 -92.6689 220° Southwest 332 382 38,000  Level Houston Center
12:14AM 30.0511 -92.7394 221° Southwest 335 386 38,000  Level Houston Center
12:15AM 29.9806 -92.8086 220° Southwest 332 382 38,000  Level Houston Center
12:16AM 29.9103 -92.8772 220° Southwest 330 380 38,000  Level Houston Center
12:17AM 29.8442 -92.9506 224° Southwest 329 379 38,000  Level Houston Center
12:18AM 29.7842 -93.0264 228° Southwest 322 371 38,000  Level Houston Center
12:19AM 29.7236 -93.1025 228° Southwest 320 368 38,000  Level Houston Center
12:20AM 29.6772 -93.1864 238° Southwest 317 365 38,000  Level Houston Center
12:21AM 29.6969 -93.2892 282° West 340 391 38,000  Level Houston Center
12:22AM 29.7389 -93.3917 295° West 352 405 38,000  Level Houston Center
12:23AM 29.7811 -93.4950 295° West 355 409 38,000  Level Houston Center
12:24AM 29.8228 -93.5978 295° West 354 407 38,000 -60 Level Houston Center
12:25AM 29.8633 -93.7014 294° West 354 407 37,900  Descending Houston Center
12:26AM 29.9050 -93.8053 295° West 355 409 38,000  Climbing Houston Center
12:27AM 29.9467 -93.9089 295° West 355 409 38,000  Level Houston Center
12:28AM 29.9858 -94.0108 294° West 351 404 38,000  Level Houston Center
12:30AM 30.0058 -94.1164 282° West 342 394 38,000  Level Houston Center
12:31AM 30.0150 -94.2228 276° West 335 386 38,000  Level Houston Center
12:32AM 30.0303 -94.3278 280° West 334 384 38,000  Level Houston Center
12:33AM 30.0517 -94.4353 283° West 341 392 38,000  Level Houston Center
12:34AM 30.0756 -94.5450 284° West 348 400 38,000  Level Houston Center
12:35AM 30.0989 -94.6528 284° West 350 403 38,000  Level Houston Center
12:36AM 30.1281 -94.7833 285° West 351 404 38,000  Level Houston Center
12:37AM 30.1631 -94.8903 291° West 363 418 38,000  Level Houston Center
12:38AM 30.2089 -94.9947 297° West 371 427 38,000  Level Houston Center
12:39AM 30.2569 -95.0978 298° West 368 423 38,000  Level Houston Center
12:40AM 30.3061 -95.2019 299° West 370 426 38,000  Level Houston Center
12:41AM 30.3511 -95.3053 297° West 365 420 38,000  Level Houston Center
12:42AM 30.3689 -95.4119 281° West 338 389 38,000  Level Houston Center
12:43AM 30.3892 -95.5208 282° West 345 397 38,000  Level Houston Center
12:44AM 30.4086 -95.6292 282° West 346 398 38,000  Level Houston Center
12:45AM 30.4269 -95.7364 281° West 342 394 38,000  Level Houston Center
12:46AM 30.4458 -95.8450 281° West 345 397 38,000  Level Houston Center
12:47AM 30.4644 -95.9519 281° West 342 394 38,000  Level Houston Center
12:48AM 30.4847 -96.0731 281° West 343 395 38,000  Level Houston Center
12:49AM 30.5039 -96.1814 282° West 340 391 38,000  Level Houston Center
12:50AM 30.5225 -96.2914 281° West 344 396 38,000  Level Houston Center
12:51AM 30.5417 -96.4028 281° West 347 399 38,000  Level Houston Center
12:52AM 30.5603 -96.5133 281° West 346 398 38,000  Level Houston Center
12:53AM 30.5789 -96.6242 281° West 346 398 38,000  Level Houston Center
12:54AM 30.5969 -96.7375 281° West 349 402 38,000  Level Houston Center
12:55AM 30.6158 -96.8475 281° West 345 397 38,000  Level Houston Center
12:56AM 30.6339 -96.9564 281° West 341 392 38,000  Level Houston Center
12:57AM 30.6511 -97.0650 280° West 338 389 38,000  Level Houston Center
12:58AM 30.6689 -97.1736 281° West 338 389 38,000  Level Houston Center
12:59AM 30.6836 -97.2642 281° West 337 388 38,000  Level Houston Center
01:00AM 30.7008 -97.3753 280° West 341 392 38,000  Level Houston Center
01:01AM 30.7186 -97.4897 280° West 351 404 38,000  Level Houston Center
01:02AM 30.7406 -97.6214 281° West 351 404 38,000  Level Houston Center
01:03AM 30.7589 -97.7381 280° West 361 415 38,000  Level Houston Center
01:04AM 30.7772 -97.8578 280° West 370 426 38,000  Level Houston Center
01:05AM 30.7969 -97.9769 281° West 372 428 38,000  Level Houston Center
01:06AM 30.8147 -98.0956 280° West 370 426 38,000  Level Houston Center
01:07AM 30.8336 -98.2150 280° West 370 426 38,000  Level Houston Center
01:08AM 30.8522 -98.3347 280° West 373 429 38,000  Level Houston Center
01:09AM 30.8706 -98.4572 280° West 380 437 38,000  Level Houston Center
01:10AM 30.8903 -98.5800 281° West 381 438 38,000  Level Houston Center
01:11AM 30.9092 -98.7033 280° West 383 441 38,000  Level Houston Center
01:12AM 30.9267 -98.8231 280° West 375 432 38,000  Level Houston Center
01:13AM 30.9450 -98.9456 280° West 378 435 38,000  Level Houston Center
01:14AM 30.9633 -99.0692 280° West 383 441 38,000  Level Houston Center
01:15AM 30.9811 -99.1864 280° West 383 441 38,000  Level Houston Center
01:16AM 30.9986 -99.3089 279° West 386 444 38,000  Level Houston Center
01:17AM 31.0161 -99.4267 280° West 374 430 38,000  Level Houston Center
01:18AM 31.0317 -99.5417 279° West 363 418 38,000  Level Houston Center
01:19AM 31.0475 -99.6586 279° West 364 419 38,000  Level Houston Center
01:20AM 31.0647 -99.7753 280° West 362 417 38,000  Level Houston Center
01:21AM 31.0808 -99.8919 279° West 361 415 38,000  Level Houston Center
01:22AM 31.0972 -100.0081 279° West 361 415 38,000  Level Houston Center
01:23AM 31.1139 -100.1261 279° West 369 425 38,000  Level Houston Center
01:24AM 31.1311 -100.2442 280° West 372 428 38,000  Level Houston Center
01:25AM 31.1497 -100.3869 279° West 368 423 38,000  Level Houston Center
01:26AM 31.1669 -100.5053 280° West 372 428 38,000  Level Houston Center
01:27AM 31.1822 -100.6233 279° West 371 427 38,000  Level Houston Center
01:28AM 31.1983 -100.7419 279° West 368 423 38,000  Level Houston Center
01:29AM 31.2147 -100.8644 279° West 389 448 38,000  Level Houston Center
01:30AM 31.2311 -100.9872 279° West 388 447 38,000  Level Houston Center
01:31AM 31.2481 -101.1078 279° West 386 444 38,000  Level Houston Center
01:32AM 31.2642 -101.2325 279° West 387 445 38,000  Level Houston Center
01:33AM 31.2803 -101.3575 279° West 389 448 38,000  Level Houston Center
01:34AM 31.2969 -101.4844 279° West 393 452 38,000  Level Houston Center
01:35AM 31.3125 -101.6122 278° West 397 457 38,000  Level Houston Center
01:36AM 31.3189 -101.6628 278° West 398 458 38,000  Level Albuquerque Center
01:37AM 31.3353 -101.7914 279° West 401 461 38,000  Level Albuquerque Center
01:38AM 31.3486 -101.9178 277° West 422 486 38,000  Level Albuquerque Center
01:39AM 31.3658 -102.0489 279° West 413 475 38,000  Level Albuquerque Center
01:40AM 31.3822 -102.1800 278° West 408 470 38,000  Level Albuquerque Center
01:41AM 31.3981 -102.3131 278° West 411 473 38,000  Level Albuquerque Center
01:42AM 31.4133 -102.4472 278° West 414 476 38,000  Level Albuquerque Center
01:43AM 31.4319 -102.5992 278° West 411 473 38,000  Level Albuquerque Center
01:44AM 31.4478 -102.7328 278° West 413 475 38,000  Level Albuquerque Center
01:45AM 31.4639 -102.8669 278° West 417 480 38,000  Level Albuquerque Center
01:46AM 31.4781 -103.0000 277° West 415 478 38,000  Level Albuquerque Center
01:47AM 31.4933 -103.1317 278° West 410 472 38,000  Level Albuquerque Center
01:48AM 31.5086 -103.2639 278° West 410 472 38,000  Level Albuquerque Center
01:49AM 31.5236 -103.3958 278° West 410 472 38,000  Level Albuquerque Center
01:50AM 31.5369 -103.5286 277° West 411 473 38,000  Level Albuquerque Center
01:51AM 31.5514 -103.6608 277° West 410 472 38,000  Level Albuquerque Center
01:52AM 31.5667 -103.7947 278° West 410 472 38,000  Level Albuquerque Center
01:53AM 31.5817 -103.9256 278° West 408 470 38,000  Level Albuquerque Center
01:54AM 31.5961 -104.0564 277° West 407 468 38,000  Level Albuquerque Center
01:55AM 31.6092 -104.1889 277° West 410 472 38,000  Level Albuquerque Center
01:56AM 31.6253 -104.3247 278° West 415 478 38,000  Level Albuquerque Center
01:57AM 31.6403 -104.4586 278° West 417 480 38,000  Level Albuquerque Center
01:58AM 31.6539 -104.5928 277° West 417 480 38,000  Level Albuquerque Center
01:59AM 31.6700 -104.7542 277° West 417 480 38,000  Level Albuquerque Center
02:00AM 31.6836 -104.8906 277° West 419 482 38,000  Level Albuquerque Center
02:01AM 31.6964 -105.0264 276° West 421 484 38,000  Level Albuquerque Center
02:02AM 31.7097 -105.1556 277° West 413 475 38,000  Level Albuquerque Center
02:03AM 31.7233 -105.2906 277° West 416 479 38,000  Level Albuquerque Center
02:04AM 31.7350 -105.4256 276° West 418 481 38,000  Level Albuquerque Center
02:05AM 31.7489 -105.5572 277° West 409 471 38,000  Level Albuquerque Center
02:06AM 31.7608 -105.6883 276° West 407 468 38,000  Level Albuquerque Center
02:07AM 31.7731 -105.8206 276° West 408 470 38,000  Level Albuquerque Center
02:08AM 31.7858 -105.9522 277° West 406 467 38,000  Level Albuquerque Center
02:09AM 31.7969 -106.0864 276° West 412 474 38,000  Level Albuquerque Center
02:10AM 31.8097 -106.2178 277° West 408 470 38,000  Level Albuquerque Center
02:11AM 31.8231 -106.3522 277° West 414 476 38,000  Level Albuquerque Center
02:12AM 31.8328 -106.4847 275° West 409 471 38,000  Level Albuquerque Center
02:13AM 31.8425 -106.6281 275° West 412 474 38,000  Level Albuquerque Center
02:14AM 31.8706 -106.7556 285° West 402 463 38,000  Level Albuquerque Center
02:15AM 31.8969 -106.8836 284° West 402 463 38,000  Level Albuquerque Center
02:16AM 31.9225 -107.0142 283° West 406 467 38,000  Level Albuquerque Center
02:17AM 31.9486 -107.1425 284° West 404 465 38,000  Level Albuquerque Center
02:18AM 31.9747 -107.2711 283° West 403 464 38,000  Level Albuquerque Center
02:19AM 31.9997 -107.3997 283° West 402 463 38,000  Level Albuquerque Center
02:20AM 32.0239 -107.5272 283° West 399 459 38,000  Level Albuquerque Center
02:21AM 32.0494 -107.6525 284° West 394 453 38,000  Level Albuquerque Center
02:22AM 32.0722 -107.7781 282° West 391 450 38,000  Level Albuquerque Center
02:23AM 32.0986 -107.9064 284° West 398 458 38,000  Level Albuquerque Center
02:24AM 32.1225 -108.0361 282° West 403 464 38,000  Level Albuquerque Center
02:25AM 32.1497 -108.1800 283° West 404 465 38,000  Level Albuquerque Center
02:26AM 32.1747 -108.3061 283° West 400 460 38,000  Level Albuquerque Center
02:27AM 32.1961 -108.4228 282° West 403 464 38,000  Level Albuquerque Center
02:28AM 32.2231 -108.5639 283° West 403 464 38,000  Level Albuquerque Center
02:29AM 32.2469 -108.6925 282° West 403 464 38,000  Level Albuquerque Center
02:30AM 32.2714 -108.8203 283° West 402 463 38,000  Level Albuquerque Center
02:31AM 32.2939 -108.9483 282° West 400 460 38,000  Level Albuquerque Center
02:32AM 32.3172 -109.0756 282° West 399 459 38,000  Level Albuquerque Center
02:33AM 32.3406 -109.2044 282° West 401 461 38,000  Level Albuquerque Center
02:34AM 32.3639 -109.3328 282° West 403 464 38,000  Level Albuquerque Center
02:35AM 32.3872 -109.4597 282° West 398 458 38,000  Level Albuquerque Center
02:36AM 32.4106 -109.5861 282° West 397 457 38,000 -300 Level Albuquerque Center
02:37AM 32.4328 -109.7125 282° West 396 456 37,500 -720 Descending Albuquerque Center
02:38AM 32.4572 -109.8431 283° West 405 466 36,600 -960 Descending Albuquerque Center
02:39AM 32.4794 -109.9697 282° West 399 459 35,600 -1,740 Descending Albuquerque Center
02:40AM 32.5075 -110.1244 282° West 402 463 33,100 -2,700 Descending Albuquerque Center
02:41AM 32.5294 -110.2542 281° West 404 465 30,200 -2,580 Descending Albuquerque Center
02:42AM 32.5503 -110.3694 282° West 401 461 28,000 -2,340 Descending Albuquerque Center
02:43AM 32.5714 -110.4956 281° West 394 453 25,600 -2,040 Descending Albuquerque Center
02:44AM 32.5989 -110.6153 285° West 382 440 24,000 -840 Descending Albuquerque Center
02:45AM 32.6547 -110.7119 304° West 359 413 24,000  Level Albuquerque Center
02:46AM 32.7092 -110.8125 303° West 362 417 24,000  Level Albuquerque Center
02:47AM 32.7631 -110.9142 302° West 362 417 24,000 -1,080 Level Albuquerque Center
02:48AM 32.8144 -111.0133 302° West 357 411 21,900 -2,100 Descending Albuquerque Center
02:49AM 32.8644 -111.1092 302° West 346 398 19,800 -1,800 Descending Albuquerque Center
02:50AM 32.9089 -111.2000 300° West 327 376 18,300 -1,680 Descending Albuquerque Center
02:51AM 32.9506 -111.2889 299° West 312 359 16,500 -1,620 Descending Albuquerque Center
02:52AM 32.9922 -111.3808 298° West 315 362 15,100 -1,440 Descending Albuquerque Center
02:53AM 33.0358 -111.4672 301° West 304 350 13,700 -1,500 Descending Albuquerque Center
02:54AM 33.0781 -111.5506 301° West 296 341 12,100 -900 Descending Albuquerque Center
02:55AM 33.1183 -111.6308 301° West 285 328 12,000 -480 Descending Albuquerque Center
02:56AM 33.1594 -111.7106 302° West 283 326 11,200 -1,020 Descending Albuquerque Center
02:57AM 33.1992 -111.7908 301° West 281 323 10,000 -900 Descending Albuquerque Center
02:58AM 33.2458 -111.8819 302° West 268 308 9,500 -540 Descending Albuquerque Center
02:59AM 33.2792 -111.9492 301° West 241 277 9,000 -840 Descending Albuquerque Center
03:00AM 33.3111 -112.0111 302° West 222 255 7,900 -1,020 Descending Albuquerque Center
03:01AM 33.3414 -112.0733 300° West 218 251 7,000 -1,080 Descending Albuquerque Center
03:02AM 33.3431 -112.1469 272° West 224 258 5,800 -780 Descending Albuquerque Center
03:03AM 33.3594 -112.2069 288° West 196 226 5,500 -660 Descending Albuquerque Center
03:04AM 33.4056 -112.2008 North 174 200 4,500 -1,140 Descending Albuquerque Center
03:05AM 33.4289 -112.1519 60° Northeast 170 196 3,300 -1,080 Descending Albuquerque Center
03:06AM 33.4308 -112.0969 88° East 165 190 2,400 -900 Descending Albuquerque Center
03:07AM 33.4314 -112.0503 89° East 144 166 1,500 -660 Descending Albuquerque Center
03:08AM 33.4308 -112.0075 91° East 144 166 1,100 -420 Descending Albuquerque Center